Aérodrome :
LOGIN :

S'inscrire | Disclaimer

   EN    FR    IT 

 










Légende :    VFR   VFR Marginal   IFR   IFR Intensif   IFR Très Intensif
Visi : 
Plafond : 
>= 8 km
>= 3000ft
5 à 8 km
1000 à 3000 ft
1500m à 5 km
500 à 1000 ft
800 à 1500m
200 à 500 ft
< 800m
< 200 ft
Symboles :   Orages  Brouillard  Fortes neiges  Fortes précipitations  Vent > 20 kt
SIGMETs :   Divers  Orages  Givrage  Turbulence  Onde Orograph.  Cendres Volcan.






- Altitude de l'aérodrome : 3368 ft


LSGC - Les Eplatures

DERNIER METAR :
  • 271320Z 04008KT 340V070 CAVOK 17/05 Q1031

METARs EXPIRÉS :
  • 271250Z 07006KT 350V150 CAVOK 18/04 Q1031
  • 271220Z 09005KT 350V160 CAVOK 17/04 Q1031
  • 271150Z 07007KT 020V150 CAVOK 17/04 Q1031
  • 271120Z 07005KT 350V140 CAVOK 17/01 Q1031
  • 271050Z 05005KT 350V120 CAVOK 16/02 Q1031

TAF TAF LSGC
Valide du 27 à 12h jusqu'au 27 à 21h UTC


271125Z 2712/2721 05008KT CAVOK
TEMPO 2714/2718 9999 FEW040



MET'MAP, la Météo Aéronautique d'un coup d'oeil ! - Copyright ORBIFLY Décembre 2007 - Disclaimer

ORBIFLY MET'MAP TEAM :

Programmation & Développement : Alexandra Zaïnal
Sur une idée originale de : Baudouin d'Aumeries
Assistance à la programmation : Marc-Olivier Méhu
Soutien technique & logistique : Manuel Goepfert

Contact : metmap@orbifly.com




SOURCES & CREDITS :

   NOAA